sensor_id;sensor_type;location;lat;lon;timestamp;P1;durP1;ratioP1;P2;durP2;ratioP2
462;SDS011;218;51.902;9.542;2024-03-23T00:54:30;2.30;;;1.60;;
462;SDS011;218;51.902;9.542;2024-03-23T00:56:58;1.98;;;1.58;;
462;SDS011;218;51.902;9.542;2024-03-23T00:59:25;1.80;;;1.70;;
462;SDS011;218;51.902;9.542;2024-03-23T01:01:53;1.83;;;1.48;;
462;SDS011;218;51.902;9.542;2024-03-23T01:04:20;2.30;;;1.40;;
462;SDS011;218;51.902;9.542;2024-03-23T01:06:47;2.30;;;1.98;;
462;SDS011;218;51.902;9.542;2024-03-23T01:09:14;1.77;;;1.63;;
462;SDS011;218;51.902;9.542;2024-03-23T01:11:40;1.60;;;1.40;;
462;SDS011;218;51.902;9.542;2024-03-23T01:14:09;2.05;;;1.55;;
462;SDS011;218;51.902;9.542;2024-03-23T01:16:35;1.80;;;1.60;;
462;SDS011;218;51.902;9.542;2024-03-23T01:19:03;2.47;;;1.70;;
462;SDS011;218;51.902;9.542;2024-03-23T01:21:29;2.10;;;1.80;;
462;SDS011;218;51.902;9.542;2024-03-23T01:23:56;1.57;;;1.23;;
462;SDS011;218;51.902;9.542;2024-03-23T01:26:22;2.30;;;1.70;;
462;SDS011;218;51.902;9.542;2024-03-23T01:28:50;1.50;;;1.25;;
462;SDS011;218;51.902;9.542;2024-03-23T01:31:17;1.97;;;1.67;;
462;SDS011;218;51.902;9.542;2024-03-23T01:33:45;1.90;;;1.10;;
462;SDS011;218;51.902;9.542;2024-03-23T01:36:11;1.93;;;1.60;;
462;SDS011;218;51.902;9.542;2024-03-23T01:38:38;1.92;;;1.52;;
462;SDS011;218;51.902;9.542;2024-03-23T01:41:04;1.90;;;1.20;;
462;SDS011;218;51.902;9.542;2024-03-23T01:43:32;2.00;;;1.90;;
462;SDS011;218;51.902;9.542;2024-03-23T01:45:58;1.85;;;1.38;;
462;SDS011;218;51.902;9.542;2024-03-23T01:48:27;2.60;;;2.23;;
462;SDS011;218;51.902;9.542;2024-03-23T01:50:53;1.70;;;1.10;;
462;SDS011;218;51.902;9.542;2024-03-23T01:53:21;2.20;;;2.00;;
462;SDS011;218;51.902;9.542;2024-03-23T01:55:48;1.50;;;1.30;;
462;SDS011;218;51.902;9.542;2024-03-23T01:58:17;1.58;;;1.10;;
462;SDS011;218;51.902;9.542;2024-03-23T02:00:43;2.07;;;1.60;;
462;SDS011;218;51.902;9.542;2024-03-23T02:03:22;1.92;;;1.30;;
462;SDS011;218;51.902;9.542;2024-03-23T02:05:51;2.73;;;2.47;;
462;SDS011;218;51.902;9.542;2024-03-23T02:08:20;1.35;;;1.08;;
462;SDS011;218;51.902;9.542;2024-03-23T02:10:46;1.63;;;1.53;;
462;SDS011;218;51.902;9.542;2024-03-23T02:13:14;10.30;;;1.90;;
462;SDS011;218;51.902;9.542;2024-03-23T02:15:40;8.53;;;2.83;;
462;SDS011;218;51.902;9.542;2024-03-23T02:18:08;11.77;;;3.00;;
462;SDS011;218;51.902;9.542;2024-03-23T02:20:34;12.98;;;4.30;;
462;SDS011;218;51.902;9.542;2024-03-23T02:23:03;9.77;;;3.13;;
462;SDS011;218;51.902;9.542;2024-03-23T02:25:31;6.97;;;2.97;;
462;SDS011;218;51.902;9.542;2024-03-23T02:27:58;5.65;;;4.50;;
462;SDS011;218;51.902;9.542;2024-03-23T02:30:25;7.50;;;2.60;;
462;SDS011;218;51.902;9.542;2024-03-23T02:32:52;6.47;;;2.90;;
462;SDS011;218;51.902;9.542;2024-03-23T02:35:19;4.90;;;2.70;;
462;SDS011;218;51.902;9.542;2024-03-23T02:37:46;5.72;;;2.85;;
462;SDS011;218;51.902;9.542;2024-03-23T02:40:15;8.40;;;3.85;;
462;SDS011;218;51.902;9.542;2024-03-23T02:42:42;7.43;;;3.00;;
462;SDS011;218;51.902;9.542;2024-03-23T02:45:08;3.58;;;2.53;;
462;SDS011;218;51.902;9.542;2024-03-23T02:47:36;8.05;;;3.15;;
462;SDS011;218;51.902;9.542;2024-03-23T02:50:02;5.18;;;2.50;;
462;SDS011;218;51.902;9.542;2024-03-23T02:52:30;7.15;;;2.60;;
462;SDS011;218;51.902;9.542;2024-03-23T02:54:56;4.70;;;2.58;;
462;SDS011;218;51.902;9.542;2024-03-23T02:57:24;5.32;;;2.83;;
462;SDS011;218;51.902;9.542;2024-03-23T02:59:51;10.18;;;3.20;;
462;SDS011;218;51.902;9.542;2024-03-23T03:02:18;9.80;;;3.35;;
462;SDS011;218;51.902;9.542;2024-03-23T03:04:44;11.43;;;3.40;;
462;SDS011;218;51.902;9.542;2024-03-23T03:07:11;8.03;;;2.73;;
462;SDS011;218;51.902;9.542;2024-03-23T03:09:37;7.82;;;3.00;;
462;SDS011;218;51.902;9.542;2024-03-23T03:12:05;5.77;;;2.70;;
462;SDS011;218;51.902;9.542;2024-03-23T03:14:33;6.22;;;3.10;;
462;SDS011;218;51.902;9.542;2024-03-23T03:17:00;5.25;;;2.83;;
462;SDS011;218;51.902;9.542;2024-03-23T03:19:26;3.75;;;2.45;;
462;SDS011;218;51.902;9.542;2024-03-23T03:21:53;4.82;;;3.10;;
462;SDS011;218;51.902;9.542;2024-03-23T03:24:20;4.38;;;2.50;;
462;SDS011;218;51.902;9.542;2024-03-23T03:26:47;5.50;;;3.08;;
462;SDS011;218;51.902;9.542;2024-03-23T03:29:14;5.63;;;2.90;;
462;SDS011;218;51.902;9.542;2024-03-23T03:31:43;5.30;;;2.40;;
462;SDS011;218;51.902;9.542;2024-03-23T03:34:10;6.75;;;2.50;;
462;SDS011;218;51.902;9.542;2024-03-23T03:36:37;6.47;;;3.10;;
462;SDS011;218;51.902;9.542;2024-03-23T03:39:04;5.13;;;2.30;;
462;SDS011;218;51.902;9.542;2024-03-23T03:41:31;5.13;;;2.05;;
462;SDS011;218;51.902;9.542;2024-03-23T03:43:58;6.40;;;2.70;;
462;SDS011;218;51.902;9.542;2024-03-23T03:46:27;6.93;;;2.58;;
462;SDS011;218;51.902;9.542;2024-03-23T03:48:55;6.13;;;2.42;;
462;SDS011;218;51.902;9.542;2024-03-23T03:51:22;8.10;;;2.67;;
462;SDS011;218;51.902;9.542;2024-03-23T03:53:48;5.40;;;2.50;;
462;SDS011;218;51.902;9.542;2024-03-23T03:56:16;6.03;;;2.30;;
462;SDS011;218;51.902;9.542;2024-03-23T03:58:42;4.70;;;2.23;;
462;SDS011;218;51.902;9.542;2024-03-23T04:01:09;7.93;;;2.40;;
462;SDS011;218;51.902;9.542;2024-03-23T04:03:37;12.38;;;3.03;;
462;SDS011;218;51.902;9.542;2024-03-23T04:06:06;6.75;;;2.83;;
462;SDS011;218;51.902;9.542;2024-03-23T04:08:33;5.40;;;2.05;;
462;SDS011;218;51.902;9.542;2024-03-23T04:10:59;7.25;;;2.55;;
462;SDS011;218;51.902;9.542;2024-03-23T04:13:26;6.35;;;2.15;;
462;SDS011;218;51.902;9.542;2024-03-23T04:15:53;6.30;;;2.47;;
462;SDS011;218;51.902;9.542;2024-03-23T04:18:21;6.72;;;2.63;;
462;SDS011;218;51.902;9.542;2024-03-23T04:20:47;7.07;;;3.00;;
462;SDS011;218;51.902;9.542;2024-03-23T04:23:15;4.80;;;2.67;;
462;SDS011;218;51.902;9.542;2024-03-23T04:25:42;5.03;;;2.38;;
462;SDS011;218;51.902;9.542;2024-03-23T04:28:09;4.30;;;2.42;;
462;SDS011;218;51.902;9.542;2024-03-23T04:30:35;7.20;;;2.58;;
462;SDS011;218;51.902;9.542;2024-03-23T04:33:02;3.78;;;2.05;;
462;SDS011;218;51.902;9.542;2024-03-23T04:35:30;6.57;;;2.30;;
462;SDS011;218;51.902;9.542;2024-03-23T04:37:57;4.60;;;2.63;;
462;SDS011;218;51.902;9.542;2024-03-23T04:40:26;4.03;;;2.00;;
462;SDS011;218;51.902;9.542;2024-03-23T04:42:53;9.20;;;3.05;;
462;SDS011;218;51.902;9.542;2024-03-23T04:45:20;3.88;;;2.22;;
462;SDS011;218;51.902;9.542;2024-03-23T04:47:47;5.70;;;2.40;;
462;SDS011;218;51.902;9.542;2024-03-23T04:50:15;7.10;;;2.50;;
462;SDS011;218;51.902;9.542;2024-03-23T04:52:43;5.00;;;2.10;;
462;SDS011;218;51.902;9.542;2024-03-23T04:55:10;5.30;;;2.20;;
462;SDS011;218;51.902;9.542;2024-03-23T04:57:40;5.57;;;1.95;;
462;SDS011;218;51.902;9.542;2024-03-23T05:00:07;5.57;;;2.00;;
462;SDS011;218;51.902;9.542;2024-03-23T05:02:42;3.80;;;1.80;;
462;SDS011;218;51.902;9.542;2024-03-23T05:05:08;4.82;;;2.30;;
462;SDS011;218;51.902;9.542;2024-03-23T05:07:36;6.07;;;3.83;;
462;SDS011;218;51.902;9.542;2024-03-23T05:10:02;2.73;;;1.60;;
462;SDS011;218;51.902;9.542;2024-03-23T05:12:30;5.95;;;2.10;;
462;SDS011;218;51.902;9.542;2024-03-23T05:14:57;4.85;;;2.00;;
462;SDS011;218;51.902;9.542;2024-03-23T05:17:25;5.10;;;1.80;;
462;SDS011;218;51.902;9.542;2024-03-23T05:19:51;3.00;;;1.67;;
462;SDS011;218;51.902;9.542;2024-03-23T05:22:18;4.38;;;1.50;;
462;SDS011;218;51.902;9.542;2024-03-23T05:24:45;3.70;;;1.73;;
462;SDS011;218;51.902;9.542;2024-03-23T05:27:12;7.03;;;1.80;;
462;SDS011;218;51.902;9.542;2024-03-23T05:29:39;8.52;;;1.88;;
462;SDS011;218;51.902;9.542;2024-03-23T05:32:07;4.72;;;1.70;;
462;SDS011;218;51.902;9.542;2024-03-23T05:34:34;4.10;;;2.10;;
462;SDS011;218;51.902;9.542;2024-03-23T05:37:01;2.95;;;1.60;;
462;SDS011;218;51.902;9.542;2024-03-23T05:39:27;2.72;;;1.98;;
462;SDS011;218;51.902;9.542;2024-03-23T05:41:55;4.55;;;1.92;;
462;SDS011;218;51.902;9.542;2024-03-23T05:44:21;2.90;;;1.83;;
462;SDS011;218;51.902;9.542;2024-03-23T05:46:48;4.75;;;1.70;;
462;SDS011;218;51.902;9.542;2024-03-23T05:49:16;3.03;;;1.70;;
462;SDS011;218;51.902;9.542;2024-03-23T05:51:44;2.93;;;1.60;;
462;SDS011;218;51.902;9.542;2024-03-23T05:54:10;2.50;;;2.17;;
462;SDS011;218;51.902;9.542;2024-03-23T05:56:38;2.58;;;1.60;;
462;SDS011;218;51.902;9.542;2024-03-23T05:59:04;4.65;;;1.90;;
462;SDS011;218;51.902;9.542;2024-03-23T06:01:32;2.67;;;1.50;;
462;SDS011;218;51.902;9.542;2024-03-23T06:03:58;4.70;;;1.60;;
462;SDS011;218;51.902;9.542;2024-03-23T06:06:28;3.90;;;1.85;;
462;SDS011;218;51.902;9.542;2024-03-23T06:08:55;4.85;;;1.80;;
462;SDS011;218;51.902;9.542;2024-03-23T06:11:22;4.85;;;2.10;;
462;SDS011;218;51.902;9.542;2024-03-23T06:13:48;3.75;;;1.50;;
462;SDS011;218;51.902;9.542;2024-03-23T06:16:16;4.20;;;1.80;;
462;SDS011;218;51.902;9.542;2024-03-23T06:18:48;4.80;;;2.22;;
462;SDS011;218;51.902;9.542;2024-03-23T06:21:15;3.70;;;1.73;;
462;SDS011;218;51.902;9.542;2024-03-23T06:23:43;3.22;;;1.77;;
462;SDS011;218;51.902;9.542;2024-03-23T06:26:17;4.60;;;1.80;;
462;SDS011;218;51.902;9.542;2024-03-23T06:28:47;6.40;;;1.80;;
462;SDS011;218;51.902;9.542;2024-03-23T06:31:14;2.63;;;1.50;;
462;SDS011;218;51.902;9.542;2024-03-23T06:33:41;4.33;;;1.87;;
462;SDS011;218;51.902;9.542;2024-03-23T06:36:09;3.55;;;2.00;;
462;SDS011;218;51.902;9.542;2024-03-23T06:38:35;6.18;;;2.17;;
462;SDS011;218;51.902;9.542;2024-03-23T06:41:04;4.40;;;1.60;;
462;SDS011;218;51.902;9.542;2024-03-23T06:43:30;6.40;;;2.22;;
462;SDS011;218;51.902;9.542;2024-03-23T06:45:58;3.35;;;1.50;;
462;SDS011;218;51.902;9.542;2024-03-23T06:48:24;2.80;;;1.67;;
462;SDS011;218;51.902;9.542;2024-03-23T06:50:55;2.75;;;1.90;;
462;SDS011;218;51.902;9.542;2024-03-23T06:53:21;5.40;;;1.80;;
462;SDS011;218;51.902;9.542;2024-03-23T06:55:50;2.80;;;1.60;;
462;SDS011;218;51.902;9.542;2024-03-23T06:58:18;2.50;;;1.53;;
462;SDS011;218;51.902;9.542;2024-03-23T07:00:45;1.60;;;1.48;;
462;SDS011;218;51.902;9.542;2024-03-23T07:03:11;2.50;;;1.50;;
462;SDS011;218;51.902;9.542;2024-03-23T07:05:41;2.90;;;1.52;;
462;SDS011;218;51.902;9.542;2024-03-23T07:08:09;2.50;;;1.60;;
462;SDS011;218;51.902;9.542;2024-03-23T07:10:38;3.20;;;1.70;;
462;SDS011;218;51.902;9.542;2024-03-23T07:13:05;5.00;;;1.73;;
462;SDS011;218;51.902;9.542;2024-03-23T07:15:33;2.73;;;1.40;;
462;SDS011;218;51.902;9.542;2024-03-23T07:18:00;3.75;;;1.88;;
462;SDS011;218;51.902;9.542;2024-03-23T07:20:27;2.45;;;1.60;;
462;SDS011;218;51.902;9.542;2024-03-23T07:22:55;3.35;;;1.50;;
462;SDS011;218;51.902;9.542;2024-03-23T07:25:23;3.08;;;1.70;;
462;SDS011;218;51.902;9.542;2024-03-23T07:27:50;4.05;;;1.60;;
462;SDS011;218;51.902;9.542;2024-03-23T07:30:18;2.80;;;1.30;;
462;SDS011;218;51.902;9.542;2024-03-23T07:32:45;3.40;;;1.60;;
462;SDS011;218;51.902;9.542;2024-03-23T07:35:13;3.42;;;1.77;;
462;SDS011;218;51.902;9.542;2024-03-23T07:37:40;2.53;;;1.42;;
462;SDS011;218;51.902;9.542;2024-03-23T07:40:08;3.78;;;1.60;;
462;SDS011;218;51.902;9.542;2024-03-23T07:42:35;5.22;;;1.70;;
462;SDS011;218;51.902;9.542;2024-03-23T07:45:02;7.85;;;2.60;;
462;SDS011;218;51.902;9.542;2024-03-23T07:47:28;6.60;;;2.35;;
462;SDS011;218;51.902;9.542;2024-03-23T07:49:57;14.23;;;3.30;;
462;SDS011;218;51.902;9.542;2024-03-23T07:52:24;10.87;;;2.60;;
462;SDS011;218;51.902;9.542;2024-03-23T07:54:51;7.15;;;2.05;;
462;SDS011;218;51.902;9.542;2024-03-23T07:57:17;7.00;;;2.40;;
462;SDS011;218;51.902;9.542;2024-03-23T07:59:45;7.87;;;2.30;;
462;SDS011;218;51.902;9.542;2024-03-23T08:02:12;5.25;;;1.90;;
462;SDS011;218;51.902;9.542;2024-03-23T08:04:38;4.78;;;1.80;;
462;SDS011;218;51.902;9.542;2024-03-23T08:07:07;4.57;;;2.20;;
462;SDS011;218;51.902;9.542;2024-03-23T08:09:33;3.37;;;1.90;;
462;SDS011;218;51.902;9.542;2024-03-23T08:12:01;4.37;;;2.30;;
462;SDS011;218;51.902;9.542;2024-03-23T08:14:27;5.47;;;2.10;;
462;SDS011;218;51.902;9.542;2024-03-23T08:16:55;4.07;;;1.90;;
462;SDS011;218;51.902;9.542;2024-03-23T08:19:21;4.63;;;2.00;;
462;SDS011;218;51.902;9.542;2024-03-23T08:21:48;4.05;;;2.28;;
462;SDS011;218;51.902;9.542;2024-03-23T08:24:17;5.47;;;3.00;;
462;SDS011;218;51.902;9.542;2024-03-23T08:26:46;4.25;;;1.80;;
462;SDS011;218;51.902;9.542;2024-03-23T08:29:12;5.20;;;2.22;;
462;SDS011;218;51.902;9.542;2024-03-23T08:31:40;4.85;;;2.33;;
462;SDS011;218;51.902;9.542;2024-03-23T08:34:06;4.75;;;2.40;;
462;SDS011;218;51.902;9.542;2024-03-23T08:36:33;6.35;;;2.40;;
462;SDS011;218;51.902;9.542;2024-03-23T08:38:59;4.60;;;2.30;;
462;SDS011;218;51.902;9.542;2024-03-23T08:41:28;5.50;;;2.50;;
462;SDS011;218;51.902;9.542;2024-03-23T08:43:55;5.70;;;3.20;;
462;SDS011;218;51.902;9.542;2024-03-23T08:46:22;6.88;;;2.92;;
462;SDS011;218;51.902;9.542;2024-03-23T08:48:48;5.55;;;2.90;;
462;SDS011;218;51.902;9.542;2024-03-23T08:51:17;7.03;;;2.90;;
462;SDS011;218;51.902;9.542;2024-03-23T08:53:45;5.50;;;3.10;;
462;SDS011;218;51.902;9.542;2024-03-23T08:56:11;6.20;;;3.00;;
462;SDS011;218;51.902;9.542;2024-03-23T08:58:40;5.43;;;3.20;;
462;SDS011;218;51.902;9.542;2024-03-23T09:01:07;7.10;;;4.00;;
462;SDS011;218;51.902;9.542;2024-03-23T09:03:35;6.65;;;3.50;;
462;SDS011;218;51.902;9.542;2024-03-23T09:06:02;5.80;;;3.42;;
462;SDS011;218;51.902;9.542;2024-03-23T09:08:29;7.60;;;4.10;;
462;SDS011;218;51.902;9.542;2024-03-23T09:10:55;7.22;;;3.88;;
462;SDS011;218;51.902;9.542;2024-03-23T09:13:22;8.40;;;4.10;;
462;SDS011;218;51.902;9.542;2024-03-23T09:15:50;8.02;;;4.25;;
462;SDS011;218;51.902;9.542;2024-03-23T09:18:21;6.28;;;3.70;;
462;SDS011;218;51.902;9.542;2024-03-23T09:20:47;8.15;;;4.07;;
462;SDS011;218;51.902;9.542;2024-03-23T09:23:14;6.95;;;4.30;;
462;SDS011;218;51.902;9.542;2024-03-23T09:25:41;9.32;;;4.50;;
462;SDS011;218;51.902;9.542;2024-03-23T09:28:08;11.20;;;4.63;;
462;SDS011;218;51.902;9.542;2024-03-23T09:30:34;8.73;;;4.80;;
462;SDS011;218;51.902;9.542;2024-03-23T09:33:08;10.35;;;4.55;;
462;SDS011;218;51.902;9.542;2024-03-23T09:35:36;9.13;;;4.45;;
462;SDS011;218;51.902;9.542;2024-03-23T09:38:04;8.82;;;4.68;;
462;SDS011;218;51.902;9.542;2024-03-23T09:40:30;10.02;;;4.70;;
462;SDS011;218;51.902;9.542;2024-03-23T09:42:58;8.60;;;4.40;;
462;SDS011;218;51.902;9.542;2024-03-23T09:45:26;7.38;;;3.50;;
462;SDS011;218;51.902;9.542;2024-03-23T09:47:54;6.60;;;4.22;;
462;SDS011;218;51.902;9.542;2024-03-23T09:50:22;7.72;;;4.10;;
462;SDS011;218;51.902;9.542;2024-03-23T09:52:50;6.00;;;3.95;;
462;SDS011;218;51.902;9.542;2024-03-23T09:55:16;7.70;;;4.13;;
462;SDS011;218;51.902;9.542;2024-03-23T09:57:43;7.70;;;4.05;;
462;SDS011;218;51.902;9.542;2024-03-23T10:00:10;8.80;;;4.20;;
462;SDS011;218;51.902;9.542;2024-03-23T10:02:38;6.20;;;4.05;;
462;SDS011;218;51.902;9.542;2024-03-23T10:05:05;8.48;;;4.30;;
462;SDS011;218;51.902;9.542;2024-03-23T10:07:48;7.13;;;3.80;;
462;SDS011;218;51.902;9.542;2024-03-23T10:10:15;7.68;;;3.80;;
462;SDS011;218;51.902;9.542;2024-03-23T10:12:45;6.05;;;3.88;;
462;SDS011;218;51.902;9.542;2024-03-23T10:15:17;6.60;;;4.03;;
462;SDS011;218;51.902;9.542;2024-03-23T10:17:44;5.75;;;3.20;;
462;SDS011;218;51.902;9.542;2024-03-23T10:20:11;7.40;;;3.60;;
462;SDS011;218;51.902;9.542;2024-03-23T10:22:38;6.30;;;3.50;;
462;SDS011;218;51.902;9.542;2024-03-23T10:25:10;5.95;;;3.70;;
462;SDS011;218;51.902;9.542;2024-03-23T10:27:39;7.03;;;3.65;;
462;SDS011;218;51.902;9.542;2024-03-23T10:30:09;6.75;;;3.40;;
462;SDS011;218;51.902;9.542;2024-03-23T10:32:36;6.45;;;3.47;;
462;SDS011;218;51.902;9.542;2024-03-23T10:35:16;5.63;;;3.28;;
462;SDS011;218;51.902;9.542;2024-03-23T10:37:44;6.88;;;3.53;;
462;SDS011;218;51.902;9.542;2024-03-23T10:40:14;6.88;;;3.38;;
462;SDS011;218;51.902;9.542;2024-03-23T10:42:40;7.03;;;3.72;;
462;SDS011;218;51.902;9.542;2024-03-23T10:45:08;5.45;;;3.03;;
462;SDS011;218;51.902;9.542;2024-03-23T10:47:34;5.78;;;3.35;;
462;SDS011;218;51.902;9.542;2024-03-23T10:50:02;4.65;;;2.78;;
462;SDS011;218;51.902;9.542;2024-03-23T10:52:30;4.50;;;2.20;;
462;SDS011;218;51.902;9.542;2024-03-23T10:54:57;2.50;;;2.00;;
462;SDS011;218;51.902;9.542;2024-03-23T10:57:27;2.80;;;1.98;;
462;SDS011;218;51.902;9.542;2024-03-23T10:59:56;4.10;;;1.92;;
462;SDS011;218;51.902;9.542;2024-03-23T11:02:23;3.65;;;1.83;;
462;SDS011;218;51.902;9.542;2024-03-23T11:04:55;5.82;;;2.15;;
462;SDS011;218;51.902;9.542;2024-03-23T11:07:30;3.58;;;2.20;;
462;SDS011;218;51.902;9.542;2024-03-23T11:09:58;5.47;;;2.20;;
462;SDS011;218;51.902;9.542;2024-03-23T11:12:28;4.10;;;1.98;;
462;SDS011;218;51.902;9.542;2024-03-23T11:14:58;3.60;;;1.83;;
462;SDS011;218;51.902;9.542;2024-03-23T11:17:25;3.65;;;1.70;;
462;SDS011;218;51.902;9.542;2024-03-23T11:19:53;3.83;;;1.93;;
462;SDS011;218;51.902;9.542;2024-03-23T11:22:40;3.53;;;1.80;;
462;SDS011;218;51.902;9.542;2024-03-23T11:25:12;2.80;;;1.40;;
462;SDS011;218;51.902;9.542;2024-03-23T11:27:40;4.00;;;1.58;;
462;SDS011;218;51.902;9.542;2024-03-23T11:30:11;23.65;;;5.25;;
462;SDS011;218;51.902;9.542;2024-03-23T11:32:37;9.93;;;2.42;;
462;SDS011;218;51.902;9.542;2024-03-23T11:35:05;5.95;;;2.50;;
462;SDS011;218;51.902;9.542;2024-03-23T11:37:31;11.07;;;3.00;;
462;SDS011;218;51.902;9.542;2024-03-23T11:39:58;5.95;;;2.65;;
462;SDS011;218;51.902;9.542;2024-03-23T11:42:26;8.05;;;2.40;;
462;SDS011;218;51.902;9.542;2024-03-23T11:44:55;6.35;;;2.20;;
462;SDS011;218;51.902;9.542;2024-03-23T11:47:21;6.03;;;2.38;;
462;SDS011;218;51.902;9.542;2024-03-23T11:49:49;3.50;;;2.30;;
462;SDS011;218;51.902;9.542;2024-03-23T11:52:15;7.43;;;3.50;;
462;SDS011;218;51.902;9.542;2024-03-23T11:54:43;4.47;;;2.80;;
462;SDS011;218;51.902;9.542;2024-03-23T11:57:09;5.38;;;2.70;;
462;SDS011;218;51.902;9.542;2024-03-23T11:59:37;4.37;;;2.70;;
462;SDS011;218;51.902;9.542;2024-03-23T12:02:08;5.43;;;2.30;;
462;SDS011;218;51.902;9.542;2024-03-23T12:04:36;4.18;;;2.40;;
462;SDS011;218;51.902;9.542;2024-03-23T12:07:09;3.70;;;2.17;;
462;SDS011;218;51.902;9.542;2024-03-23T12:09:37;4.65;;;2.20;;
462;SDS011;218;51.902;9.542;2024-03-23T12:12:07;3.10;;;2.10;;
462;SDS011;218;51.902;9.542;2024-03-23T12:14:35;3.10;;;1.70;;
462;SDS011;218;51.902;9.542;2024-03-23T12:17:08;3.30;;;1.80;;
462;SDS011;218;51.902;9.542;2024-03-23T12:19:36;3.40;;;1.60;;
462;SDS011;218;51.902;9.542;2024-03-23T12:22:02;2.63;;;1.83;;
462;SDS011;218;51.902;9.542;2024-03-23T12:24:30;4.57;;;2.63;;
462;SDS011;218;51.902;9.542;2024-03-23T12:26:59;3.17;;;2.00;;
462;SDS011;218;51.902;9.542;2024-03-23T12:29:27;2.38;;;1.77;;
462;SDS011;218;51.902;9.542;2024-03-23T12:31:54;8.52;;;7.82;;
462;SDS011;218;51.902;9.542;2024-03-23T12:34:23;13.77;;;12.98;;
462;SDS011;218;51.902;9.542;2024-03-23T12:36:49;4.35;;;3.95;;
462;SDS011;218;51.902;9.542;2024-03-23T12:39:17;4.25;;;3.85;;
462;SDS011;218;51.902;9.542;2024-03-23T12:41:43;8.13;;;7.63;;
462;SDS011;218;51.902;9.542;2024-03-23T12:44:11;12.32;;;11.73;;
462;SDS011;218;51.902;9.542;2024-03-23T12:46:38;3.60;;;2.28;;
462;SDS011;218;51.902;9.542;2024-03-23T12:49:05;2.85;;;1.90;;
462;SDS011;218;51.902;9.542;2024-03-23T12:51:33;4.40;;;2.00;;
462;SDS011;218;51.902;9.542;2024-03-23T12:54:00;4.50;;;2.70;;
462;SDS011;218;51.902;9.542;2024-03-23T12:56:27;3.17;;;2.10;;
462;SDS011;218;51.902;9.542;2024-03-23T12:58:54;2.73;;;1.83;;
462;SDS011;218;51.902;9.542;2024-03-23T13:01:22;3.35;;;1.90;;
462;SDS011;218;51.902;9.542;2024-03-23T13:03:51;4.70;;;2.40;;
462;SDS011;218;51.902;9.542;2024-03-23T13:06:18;3.72;;;2.10;;
462;SDS011;218;51.902;9.542;2024-03-23T13:08:47;3.00;;;2.20;;
462;SDS011;218;51.902;9.542;2024-03-23T13:11:15;2.60;;;2.10;;
462;SDS011;218;51.902;9.542;2024-03-23T13:13:43;4.83;;;2.53;;
462;SDS011;218;51.902;9.542;2024-03-23T13:16:09;5.25;;;2.60;;
462;SDS011;218;51.902;9.542;2024-03-23T13:18:36;4.10;;;2.20;;
462;SDS011;218;51.902;9.542;2024-03-23T13:21:02;3.80;;;2.20;;
462;SDS011;218;51.902;9.542;2024-03-23T13:23:31;2.65;;;2.00;;
462;SDS011;218;51.902;9.542;2024-03-23T13:26:00;2.75;;;1.88;;
462;SDS011;218;51.902;9.542;2024-03-23T13:28:28;4.07;;;1.70;;
462;SDS011;218;51.902;9.542;2024-03-23T13:30:54;5.47;;;1.88;;
462;SDS011;218;51.902;9.542;2024-03-23T13:33:22;3.17;;;1.50;;
462;SDS011;218;51.902;9.542;2024-03-23T13:35:49;3.00;;;1.65;;
462;SDS011;218;51.902;9.542;2024-03-23T13:38:17;2.10;;;1.73;;
462;SDS011;218;51.902;9.542;2024-03-23T13:40:52;2.17;;;1.60;;
462;SDS011;218;51.902;9.542;2024-03-23T13:43:21;3.60;;;2.28;;
462;SDS011;218;51.902;9.542;2024-03-23T13:45:48;3.47;;;2.50;;
462;SDS011;218;51.902;9.542;2024-03-23T13:48:16;3.05;;;1.95;;
462;SDS011;218;51.902;9.542;2024-03-23T13:50:43;3.03;;;2.20;;
462;SDS011;218;51.902;9.542;2024-03-23T13:53:12;3.67;;;2.40;;
462;SDS011;218;51.902;9.542;2024-03-23T13:55:45;4.00;;;2.13;;
462;SDS011;218;51.902;9.542;2024-03-23T13:58:13;2.60;;;2.10;;
462;SDS011;218;51.902;9.542;2024-03-23T14:00:41;4.82;;;2.50;;
462;SDS011;218;51.902;9.542;2024-03-23T14:03:08;3.97;;;1.67;;
462;SDS011;218;51.902;9.542;2024-03-23T14:05:35;2.70;;;2.20;;
462;SDS011;218;51.902;9.542;2024-03-23T14:08:03;2.83;;;1.75;;
462;SDS011;218;51.902;9.542;2024-03-23T14:10:30;3.42;;;2.33;;
462;SDS011;218;51.902;9.542;2024-03-23T14:12:57;3.40;;;2.10;;
462;SDS011;218;51.902;9.542;2024-03-23T14:15:25;3.40;;;2.47;;
462;SDS011;218;51.902;9.542;2024-03-23T14:17:53;2.97;;;1.70;;
462;SDS011;218;51.902;9.542;2024-03-23T14:20:20;2.17;;;1.95;;
462;SDS011;218;51.902;9.542;2024-03-23T14:22:47;2.97;;;1.30;;
462;SDS011;218;51.902;9.542;2024-03-23T14:25:14;3.45;;;2.03;;
462;SDS011;218;51.902;9.542;2024-03-23T14:27:42;2.20;;;1.52;;
462;SDS011;218;51.902;9.542;2024-03-23T14:30:10;3.53;;;2.05;;
462;SDS011;218;51.902;9.542;2024-03-23T14:32:37;4.88;;;3.08;;
462;SDS011;218;51.902;9.542;2024-03-23T14:35:05;2.90;;;1.65;;
462;SDS011;218;51.902;9.542;2024-03-23T14:37:35;3.50;;;1.87;;
462;SDS011;218;51.902;9.542;2024-03-23T14:40:02;3.05;;;2.08;;
462;SDS011;218;51.902;9.542;2024-03-23T14:42:29;2.15;;;1.55;;
462;SDS011;218;51.902;9.542;2024-03-23T14:44:56;2.58;;;1.88;;
462;SDS011;218;51.902;9.542;2024-03-23T14:47:23;3.30;;;2.20;;
462;SDS011;218;51.902;9.542;2024-03-23T14:49:50;1.70;;;1.60;;
462;SDS011;218;51.902;9.542;2024-03-23T14:52:21;2.60;;;1.90;;
462;SDS011;218;51.902;9.542;2024-03-23T14:54:47;2.55;;;1.50;;
462;SDS011;218;51.902;9.542;2024-03-23T14:57:14;2.42;;;2.00;;
462;SDS011;218;51.902;9.542;2024-03-23T14:59:41;2.38;;;1.58;;
462;SDS011;218;51.902;9.542;2024-03-23T15:02:08;2.50;;;1.40;;
462;SDS011;218;51.902;9.542;2024-03-23T15:04:34;1.95;;;1.55;;
462;SDS011;218;51.902;9.542;2024-03-23T15:07:02;2.22;;;1.42;;
462;SDS011;218;51.902;9.542;2024-03-23T15:09:29;3.00;;;1.80;;
462;SDS011;218;51.902;9.542;2024-03-23T15:11:57;2.85;;;1.60;;
462;SDS011;218;51.902;9.542;2024-03-23T15:14:24;3.90;;;2.60;;
462;SDS011;218;51.902;9.542;2024-03-23T15:16:51;1.95;;;1.48;;
462;SDS011;218;51.902;9.542;2024-03-23T15:19:17;2.40;;;1.57;;
462;SDS011;218;51.902;9.542;2024-03-23T15:21:45;1.67;;;1.23;;
462;SDS011;218;51.902;9.542;2024-03-23T15:24:11;1.95;;;1.58;;
462;SDS011;218;51.902;9.542;2024-03-23T15:26:40;2.33;;;1.02;;
462;SDS011;218;51.902;9.542;2024-03-23T15:29:07;2.00;;;1.30;;
462;SDS011;218;51.902;9.542;2024-03-23T15:31:40;2.53;;;1.20;;
462;SDS011;218;51.902;9.542;2024-03-23T15:34:06;1.70;;;1.60;;
462;SDS011;218;51.902;9.542;2024-03-23T15:36:35;1.90;;;1.10;;
462;SDS011;218;51.902;9.542;2024-03-23T15:39:03;2.07;;;1.17;;
462;SDS011;218;51.902;9.542;2024-03-23T15:41:31;1.70;;;1.13;;
462;SDS011;218;51.902;9.542;2024-03-23T15:44:00;1.50;;;1.10;;
462;SDS011;218;51.902;9.542;2024-03-23T15:46:28;1.90;;;1.40;;
462;SDS011;218;51.902;9.542;2024-03-23T15:48:54;1.95;;;1.33;;
462;SDS011;218;51.902;9.542;2024-03-23T15:51:21;1.90;;;1.23;;
462;SDS011;218;51.902;9.542;2024-03-23T15:53:47;2.25;;;1.20;;
462;SDS011;218;51.902;9.542;2024-03-23T15:56:17;2.05;;;1.20;;
462;SDS011;218;51.902;9.542;2024-03-23T15:58:43;1.33;;;1.20;;
462;SDS011;218;51.902;9.542;2024-03-23T16:01:13;1.60;;;1.20;;
462;SDS011;218;51.902;9.542;2024-03-23T16:03:39;1.85;;;1.02;;
462;SDS011;218;51.902;9.542;2024-03-23T16:06:07;1.40;;;1.00;;
462;SDS011;218;51.902;9.542;2024-03-23T16:08:33;1.90;;;1.10;;
462;SDS011;218;51.902;9.542;2024-03-23T16:11:01;1.55;;;1.35;;
462;SDS011;218;51.902;9.542;2024-03-23T16:13:28;1.83;;;1.05;;
462;SDS011;218;51.902;9.542;2024-03-23T16:15:57;1.60;;;0.90;;
462;SDS011;218;51.902;9.542;2024-03-23T16:18:25;1.60;;;1.17;;
462;SDS011;218;51.902;9.542;2024-03-23T16:20:55;1.17;;;0.95;;
462;SDS011;218;51.902;9.542;2024-03-23T16:23:22;1.40;;;1.00;;
462;SDS011;218;51.902;9.542;2024-03-23T16:25:49;2.40;;;1.15;;
462;SDS011;218;51.902;9.542;2024-03-23T16:28:21;1.80;;;1.00;;
462;SDS011;218;51.902;9.542;2024-03-23T16:30:53;1.23;;;0.95;;
462;SDS011;218;51.902;9.542;2024-03-23T16:33:19;1.40;;;0.90;;
462;SDS011;218;51.902;9.542;2024-03-23T16:35:55;1.45;;;1.25;;
462;SDS011;218;51.902;9.542;2024-03-23T16:38:21;1.30;;;0.82;;
462;SDS011;218;51.902;9.542;2024-03-23T16:40:52;2.55;;;1.10;;